Ankara/Etimesgut, Turkey
Current Conditions -  °F | °C
As of 5:20 PM on Thursday 30 Oct 2014 (Local Time) from LTAC Reporting Station
Broken Clouds Broken Clouds  
Wind Chill: 55°   Ceiling: 10000
Heat Index: 55°   Visibility: 6mi
Dew Point: 46°   Wind: 2mph
Humidity: 72%   Direction: NA
Pressure: 29.94"   Gusts: NA
Location:  39.97°N, 32.68°E
Report Text: LTAC 301420Z VRB02KT 9999 SCT035 BKN100 13/08 Q1014 NOSIG
Loading
Personal Weather Stations






























Interactive Weather Map
Tropical Storm Tracking
New forecast layout! Learn more

10-Day Weather Forecast

Advertisements
Track Severe Weather on mobile